sensor_id;sensor_type;location;lat;lon;timestamp;P1;durP1;ratioP1;P2;durP2;ratioP2
28627;SDS011;15815;46.760;19.604;2023-05-15T00:01:55;25.30;;;11.35;;
28627;SDS011;15815;46.760;19.604;2023-05-15T00:04:21;18.92;;;11.13;;
28627;SDS011;15815;46.760;19.604;2023-05-15T00:06:46;17.05;;;11.20;;
28627;SDS011;15815;46.760;19.604;2023-05-15T00:09:12;16.27;;;11.40;;
28627;SDS011;15815;46.760;19.604;2023-05-15T00:11:37;13.10;;;10.85;;
28627;SDS011;15815;46.760;19.604;2023-05-15T00:14:03;19.73;;;11.40;;
28627;SDS011;15815;46.760;19.604;2023-05-15T00:16:28;13.50;;;10.95;;
28627;SDS011;15815;46.760;19.604;2023-05-15T00:18:54;13.90;;;11.48;;
28627;SDS011;15815;46.760;19.604;2023-05-15T00:21:19;20.30;;;11.63;;
28627;SDS011;15815;46.760;19.604;2023-05-15T00:23:45;22.05;;;11.85;;
28627;SDS011;15815;46.760;19.604;2023-05-15T00:26:11;18.92;;;11.93;;
28627;SDS011;15815;46.760;19.604;2023-05-15T00:28:37;20.98;;;12.60;;
28627;SDS011;15815;46.760;19.604;2023-05-15T00:31:02;17.58;;;11.43;;
28627;SDS011;15815;46.760;19.604;2023-05-15T00:33:28;21.25;;;12.45;;
28627;SDS011;15815;46.760;19.604;2023-05-15T00:35:53;16.08;;;12.07;;
28627;SDS011;15815;46.760;19.604;2023-05-15T00:38:19;16.70;;;11.88;;
28627;SDS011;15815;46.760;19.604;2023-05-15T00:40:47;17.35;;;12.05;;
28627;SDS011;15815;46.760;19.604;2023-05-15T00:43:12;17.17;;;12.57;;
28627;SDS011;15815;46.760;19.604;2023-05-15T00:45:39;17.65;;;12.38;;
28627;SDS011;15815;46.760;19.604;2023-05-15T00:48:07;17.85;;;12.15;;
28627;SDS011;15815;46.760;19.604;2023-05-15T00:50:34;19.17;;;11.57;;
28627;SDS011;15815;46.760;19.604;2023-05-15T00:53:00;17.73;;;12.73;;
28627;SDS011;15815;46.760;19.604;2023-05-15T00:55:27;20.17;;;12.45;;
28627;SDS011;15815;46.760;19.604;2023-05-15T00:57:53;20.17;;;12.68;;
28627;SDS011;15815;46.760;19.604;2023-05-15T01:00:20;24.88;;;13.75;;
28627;SDS011;15815;46.760;19.604;2023-05-15T01:02:46;16.33;;;12.48;;
28627;SDS011;15815;46.760;19.604;2023-05-15T01:05:15;17.88;;;12.05;;
28627;SDS011;15815;46.760;19.604;2023-05-15T01:07:51;18.65;;;13.10;;
28627;SDS011;15815;46.760;19.604;2023-05-15T01:10:20;22.85;;;13.65;;
28627;SDS011;15815;46.760;19.604;2023-05-15T01:12:47;19.42;;;14.25;;
28627;SDS011;15815;46.760;19.604;2023-05-15T01:15:17;22.23;;;14.40;;
28627;SDS011;15815;46.760;19.604;2023-05-15T01:17:43;19.70;;;13.57;;
28627;SDS011;15815;46.760;19.604;2023-05-15T01:20:08;25.13;;;13.73;;
28627;SDS011;15815;46.760;19.604;2023-05-15T01:22:43;21.55;;;14.00;;
28627;SDS011;15815;46.760;19.604;2023-05-15T01:28:29;19.70;;;13.60;;
28627;SDS011;15815;46.760;19.604;2023-05-15T01:31:00;19.20;;;14.18;;
28627;SDS011;15815;46.760;19.604;2023-05-15T01:33:34;18.85;;;14.00;;
28627;SDS011;15815;46.760;19.604;2023-05-15T01:41:01;19.60;;;13.82;;
28627;SDS011;15815;46.760;19.604;2023-05-15T01:43:35;20.92;;;14.90;;
28627;SDS011;15815;46.760;19.604;2023-05-15T01:46:05;19.83;;;14.65;;
28627;SDS011;15815;46.760;19.604;2023-05-15T01:48:32;22.17;;;14.90;;
28627;SDS011;15815;46.760;19.604;2023-05-15T01:51:00;21.70;;;15.55;;
28627;SDS011;15815;46.760;19.604;2023-05-15T01:53:30;22.42;;;15.00;;
28627;SDS011;15815;46.760;19.604;2023-05-15T01:58:28;21.90;;;14.85;;
28627;SDS011;15815;46.760;19.604;2023-05-15T02:00:56;22.13;;;14.82;;
28627;SDS011;15815;46.760;19.604;2023-05-15T02:03:23;26.48;;;16.20;;
28627;SDS011;15815;46.760;19.604;2023-05-15T02:05:49;19.70;;;15.57;;
28627;SDS011;15815;46.760;19.604;2023-05-15T02:08:16;21.33;;;13.98;;
28627;SDS011;15815;46.760;19.604;2023-05-15T02:10:41;24.17;;;14.93;;
28627;SDS011;15815;46.760;19.604;2023-05-15T02:13:07;24.02;;;14.32;;
28627;SDS011;15815;46.760;19.604;2023-05-15T02:15:34;20.70;;;14.93;;
28627;SDS011;15815;46.760;19.604;2023-05-15T02:18:00;21.48;;;15.73;;
28627;SDS011;15815;46.760;19.604;2023-05-15T02:20:26;17.80;;;13.65;;
28627;SDS011;15815;46.760;19.604;2023-05-15T02:22:51;21.75;;;13.98;;
28627;SDS011;15815;46.760;19.604;2023-05-15T02:25:17;21.88;;;13.35;;
28627;SDS011;15815;46.760;19.604;2023-05-15T02:27:59;20.00;;;13.85;;
28627;SDS011;15815;46.760;19.604;2023-05-15T02:30:34;16.75;;;12.98;;
28627;SDS011;15815;46.760;19.604;2023-05-15T02:33:11;16.73;;;13.43;;
28627;SDS011;15815;46.760;19.604;2023-05-15T02:35:50;22.07;;;13.70;;
28627;SDS011;15815;46.760;19.604;2023-05-15T02:38:28;20.42;;;15.00;;
28627;SDS011;15815;46.760;19.604;2023-05-15T02:43:35;17.00;;;13.00;;
28627;SDS011;15815;46.760;19.604;2023-05-15T02:46:04;17.63;;;13.82;;
28627;SDS011;15815;46.760;19.604;2023-05-15T02:48:35;16.98;;;14.05;;
28627;SDS011;15815;46.760;19.604;2023-05-15T02:51:04;19.77;;;14.48;;
28627;SDS011;15815;46.760;19.604;2023-05-15T02:53:30;21.77;;;14.52;;
28627;SDS011;15815;46.760;19.604;2023-05-15T02:55:57;18.50;;;14.02;;
28627;SDS011;15815;46.760;19.604;2023-05-15T02:58:22;19.25;;;14.27;;
28627;SDS011;15815;46.760;19.604;2023-05-15T03:00:48;18.05;;;13.95;;
28627;SDS011;15815;46.760;19.604;2023-05-15T03:03:13;18.20;;;14.32;;
28627;SDS011;15815;46.760;19.604;2023-05-15T03:05:39;19.27;;;15.02;;
28627;SDS011;15815;46.760;19.604;2023-05-15T03:08:05;22.98;;;15.60;;
28627;SDS011;15815;46.760;19.604;2023-05-15T03:10:30;23.30;;;15.30;;
28627;SDS011;15815;46.760;19.604;2023-05-15T03:12:56;23.63;;;14.80;;
28627;SDS011;15815;46.760;19.604;2023-05-15T03:15:22;20.85;;;14.18;;
28627;SDS011;15815;46.760;19.604;2023-05-15T03:17:48;26.35;;;14.85;;
28627;SDS011;15815;46.760;19.604;2023-05-15T03:20:13;29.60;;;14.05;;
28627;SDS011;15815;46.760;19.604;2023-05-15T03:22:40;19.50;;;15.32;;
28627;SDS011;15815;46.760;19.604;2023-05-15T03:25:07;21.25;;;15.27;;
28627;SDS011;15815;46.760;19.604;2023-05-15T03:27:34;20.95;;;14.90;;
28627;SDS011;15815;46.760;19.604;2023-05-15T03:30:00;23.13;;;15.23;;
28627;SDS011;15815;46.760;19.604;2023-05-15T03:32:26;24.98;;;15.27;;
28627;SDS011;15815;46.760;19.604;2023-05-15T03:34:52;23.35;;;17.17;;
28627;SDS011;15815;46.760;19.604;2023-05-15T03:37:17;23.20;;;15.38;;
28627;SDS011;15815;46.760;19.604;2023-05-15T03:39:43;19.88;;;16.08;;
28627;SDS011;15815;46.760;19.604;2023-05-15T03:42:08;19.08;;;15.57;;
28627;SDS011;15815;46.760;19.604;2023-05-15T03:44:34;22.38;;;15.10;;
28627;SDS011;15815;46.760;19.604;2023-05-15T03:46:59;20.35;;;15.45;;
28627;SDS011;15815;46.760;19.604;2023-05-15T03:49:24;20.65;;;15.57;;
28627;SDS011;15815;46.760;19.604;2023-05-15T03:51:51;20.75;;;15.57;;
28627;SDS011;15815;46.760;19.604;2023-05-15T03:54:17;23.67;;;14.70;;
28627;SDS011;15815;46.760;19.604;2023-05-15T03:56:43;20.15;;;16.00;;
28627;SDS011;15815;46.760;19.604;2023-05-15T03:59:10;29.00;;;16.40;;
28627;SDS011;15815;46.760;19.604;2023-05-15T04:01:35;18.67;;;15.07;;
28627;SDS011;15815;46.760;19.604;2023-05-15T04:04:01;21.55;;;15.77;;
28627;SDS011;15815;46.760;19.604;2023-05-15T04:06:27;19.65;;;16.08;;
28627;SDS011;15815;46.760;19.604;2023-05-15T04:08:52;19.25;;;15.20;;
28627;SDS011;15815;46.760;19.604;2023-05-15T04:11:18;20.75;;;14.68;;
28627;SDS011;15815;46.760;19.604;2023-05-15T04:13:43;28.15;;;19.08;;
28627;SDS011;15815;46.760;19.604;2023-05-15T04:16:09;20.23;;;15.32;;
28627;SDS011;15815;46.760;19.604;2023-05-15T04:18:35;19.38;;;14.82;;
28627;SDS011;15815;46.760;19.604;2023-05-15T04:21:01;17.65;;;14.13;;
28627;SDS011;15815;46.760;19.604;2023-05-15T04:23:26;18.25;;;14.40;;
28627;SDS011;15815;46.760;19.604;2023-05-15T04:25:52;23.00;;;16.15;;
28627;SDS011;15815;46.760;19.604;2023-05-15T04:28:17;26.63;;;16.77;;
28627;SDS011;15815;46.760;19.604;2023-05-15T04:30:43;21.77;;;15.63;;
28627;SDS011;15815;46.760;19.604;2023-05-15T04:33:08;19.88;;;14.20;;
28627;SDS011;15815;46.760;19.604;2023-05-15T04:35:34;24.00;;;13.65;;
28627;SDS011;15815;46.760;19.604;2023-05-15T04:37:59;20.15;;;14.90;;
28627;SDS011;15815;46.760;19.604;2023-05-15T04:40:25;22.75;;;16.17;;
28627;SDS011;15815;46.760;19.604;2023-05-15T04:42:50;20.95;;;15.07;;
28627;SDS011;15815;46.760;19.604;2023-05-15T04:45:16;22.80;;;15.40;;
28627;SDS011;15815;46.760;19.604;2023-05-15T04:47:41;22.30;;;14.88;;
28627;SDS011;15815;46.760;19.604;2023-05-15T04:50:07;21.98;;;14.25;;
28627;SDS011;15815;46.760;19.604;2023-05-15T04:52:33;18.02;;;14.18;;
28627;SDS011;15815;46.760;19.604;2023-05-15T04:55:02;23.17;;;14.75;;
28627;SDS011;15815;46.760;19.604;2023-05-15T04:57:28;19.70;;;13.30;;
28627;SDS011;15815;46.760;19.604;2023-05-15T04:59:53;18.30;;;15.10;;
28627;SDS011;15815;46.760;19.604;2023-05-15T05:02:19;20.65;;;14.60;;
28627;SDS011;15815;46.760;19.604;2023-05-15T05:04:45;25.42;;;14.88;;
28627;SDS011;15815;46.760;19.604;2023-05-15T05:07:14;22.30;;;14.65;;
28627;SDS011;15815;46.760;19.604;2023-05-15T05:09:40;17.35;;;13.90;;
28627;SDS011;15815;46.760;19.604;2023-05-15T05:12:06;18.17;;;14.10;;
28627;SDS011;15815;46.760;19.604;2023-05-15T05:14:32;22.05;;;14.93;;
28627;SDS011;15815;46.760;19.604;2023-05-15T05:16:58;21.55;;;15.82;;
28627;SDS011;15815;46.760;19.604;2023-05-15T05:19:23;21.83;;;15.10;;
28627;SDS011;15815;46.760;19.604;2023-05-15T05:21:50;22.45;;;15.30;;
28627;SDS011;15815;46.760;19.604;2023-05-15T05:24:15;20.27;;;15.05;;
28627;SDS011;15815;46.760;19.604;2023-05-15T05:26:44;20.27;;;15.48;;
28627;SDS011;15815;46.760;19.604;2023-05-15T05:29:09;22.85;;;16.52;;
28627;SDS011;15815;46.760;19.604;2023-05-15T05:31:35;25.30;;;14.77;;
28627;SDS011;15815;46.760;19.604;2023-05-15T05:34:01;20.92;;;16.35;;
28627;SDS011;15815;46.760;19.604;2023-05-15T05:36:26;26.73;;;16.17;;
28627;SDS011;15815;46.760;19.604;2023-05-15T05:38:52;21.25;;;16.67;;
28627;SDS011;15815;46.760;19.604;2023-05-15T05:41:17;18.15;;;16.23;;
28627;SDS011;15815;46.760;19.604;2023-05-15T05:43:43;24.15;;;15.85;;
28627;SDS011;15815;46.760;19.604;2023-05-15T05:46:09;22.50;;;17.23;;
28627;SDS011;15815;46.760;19.604;2023-05-15T05:48:34;21.10;;;16.70;;
28627;SDS011;15815;46.760;19.604;2023-05-15T05:51:00;21.90;;;16.92;;
28627;SDS011;15815;46.760;19.604;2023-05-15T05:53:26;23.17;;;17.55;;
28627;SDS011;15815;46.760;19.604;2023-05-15T05:55:52;17.98;;;14.48;;
28627;SDS011;15815;46.760;19.604;2023-05-15T05:58:19;24.38;;;18.05;;
28627;SDS011;15815;46.760;19.604;2023-05-15T06:00:45;23.52;;;18.17;;
28627;SDS011;15815;46.760;19.604;2023-05-15T06:03:10;30.60;;;17.08;;
28627;SDS011;15815;46.760;19.604;2023-05-15T06:05:36;21.30;;;17.30;;
28627;SDS011;15815;46.760;19.604;2023-05-15T06:08:01;21.60;;;16.63;;
28627;SDS011;15815;46.760;19.604;2023-05-15T06:10:27;22.35;;;16.13;;
28627;SDS011;15815;46.760;19.604;2023-05-15T06:12:55;20.70;;;15.77;;
28627;SDS011;15815;46.760;19.604;2023-05-15T06:15:21;24.50;;;16.75;;
28627;SDS011;15815;46.760;19.604;2023-05-15T06:17:46;21.83;;;17.10;;
28627;SDS011;15815;46.760;19.604;2023-05-15T06:20:13;23.05;;;17.30;;
28627;SDS011;15815;46.760;19.604;2023-05-15T06:22:40;23.83;;;18.60;;
28627;SDS011;15815;46.760;19.604;2023-05-15T06:25:06;25.63;;;17.48;;
28627;SDS011;15815;46.760;19.604;2023-05-15T06:27:32;26.23;;;17.92;;
28627;SDS011;15815;46.760;19.604;2023-05-15T06:29:58;23.88;;;17.73;;
28627;SDS011;15815;46.760;19.604;2023-05-15T06:32:24;24.60;;;16.73;;
28627;SDS011;15815;46.760;19.604;2023-05-15T06:34:50;25.80;;;18.02;;
28627;SDS011;15815;46.760;19.604;2023-05-15T06:37:16;25.90;;;18.17;;
28627;SDS011;15815;46.760;19.604;2023-05-15T06:39:45;22.67;;;18.05;;
28627;SDS011;15815;46.760;19.604;2023-05-15T06:42:10;26.00;;;19.98;;
28627;SDS011;15815;46.760;19.604;2023-05-15T06:44:36;25.15;;;18.77;;
28627;SDS011;15815;46.760;19.604;2023-05-15T06:47:03;30.35;;;20.20;;
28627;SDS011;15815;46.760;19.604;2023-05-15T06:49:29;19.27;;;16.95;;
28627;SDS011;15815;46.760;19.604;2023-05-15T06:51:55;21.70;;;17.13;;
28627;SDS011;15815;46.760;19.604;2023-05-15T06:54:20;23.67;;;16.17;;
28627;SDS011;15815;46.760;19.604;2023-05-15T06:56:46;21.80;;;16.05;;
28627;SDS011;15815;46.760;19.604;2023-05-15T06:59:11;19.85;;;15.40;;
28627;SDS011;15815;46.760;19.604;2023-05-15T07:01:37;19.90;;;15.30;;
28627;SDS011;15815;46.760;19.604;2023-05-15T07:04:03;20.88;;;15.95;;
28627;SDS011;15815;46.760;19.604;2023-05-15T07:06:30;20.63;;;16.55;;
28627;SDS011;15815;46.760;19.604;2023-05-15T07:08:55;17.60;;;15.70;;
28627;SDS011;15815;46.760;19.604;2023-05-15T07:11:21;19.02;;;14.43;;
28627;SDS011;15815;46.760;19.604;2023-05-15T07:13:46;16.58;;;14.65;;
28627;SDS011;15815;46.760;19.604;2023-05-15T07:16:12;19.73;;;15.88;;
28627;SDS011;15815;46.760;19.604;2023-05-15T07:18:37;16.38;;;14.52;;
28627;SDS011;15815;46.760;19.604;2023-05-15T07:21:03;19.63;;;16.33;;
28627;SDS011;15815;46.760;19.604;2023-05-15T07:23:29;16.45;;;14.73;;
28627;SDS011;15815;46.760;19.604;2023-05-15T07:25:57;15.55;;;13.93;;
28627;SDS011;15815;46.760;19.604;2023-05-15T07:28:23;17.88;;;15.15;;
28627;SDS011;15815;46.760;19.604;2023-05-15T07:30:49;14.48;;;12.48;;
28627;SDS011;15815;46.760;19.604;2023-05-15T07:33:15;13.63;;;12.32;;
28627;SDS011;15815;46.760;19.604;2023-05-15T07:35:41;15.07;;;12.57;;
28627;SDS011;15815;46.760;19.604;2023-05-15T07:38:07;11.32;;;10.32;;
28627;SDS011;15815;46.760;19.604;2023-05-15T07:40:35;13.57;;;10.65;;
28627;SDS011;15815;46.760;19.604;2023-05-15T07:43:01;11.63;;;10.43;;
28627;SDS011;15815;46.760;19.604;2023-05-15T07:45:26;14.70;;;10.65;;
28627;SDS011;15815;46.760;19.604;2023-05-15T07:47:52;14.80;;;12.18;;
28627;SDS011;15815;46.760;19.604;2023-05-15T07:50:17;13.80;;;11.75;;
28627;SDS011;15815;46.760;19.604;2023-05-15T07:52:43;14.05;;;11.50;;
28627;SDS011;15815;46.760;19.604;2023-05-15T07:55:09;14.02;;;11.65;;
28627;SDS011;15815;46.760;19.604;2023-05-15T07:57:37;10.55;;;9.45;;
28627;SDS011;15815;46.760;19.604;2023-05-15T08:00:03;9.43;;;8.40;;
28627;SDS011;15815;46.760;19.604;2023-05-15T08:02:29;10.48;;;9.50;;
28627;SDS011;15815;46.760;19.604;2023-05-15T08:04:55;11.35;;;8.15;;
28627;SDS011;15815;46.760;19.604;2023-05-15T08:07:20;9.57;;;8.68;;
28627;SDS011;15815;46.760;19.604;2023-05-15T08:09:46;7.18;;;6.45;;
28627;SDS011;15815;46.760;19.604;2023-05-15T08:12:18;7.60;;;6.07;;
28627;SDS011;15815;46.760;19.604;2023-05-15T08:14:47;6.55;;;5.95;;
28627;SDS011;15815;46.760;19.604;2023-05-15T08:17:15;6.53;;;6.00;;
28627;SDS011;15815;46.760;19.604;2023-05-15T08:19:41;6.78;;;5.65;;
28627;SDS011;15815;46.760;19.604;2023-05-15T08:22:07;6.75;;;6.15;;
28627;SDS011;15815;46.760;19.604;2023-05-15T08:24:32;5.63;;;5.20;;
28627;SDS011;15815;46.760;19.604;2023-05-15T08:26:58;6.53;;;5.93;;
28627;SDS011;15815;46.760;19.604;2023-05-15T08:29:23;7.60;;;6.90;;
28627;SDS011;15815;46.760;19.604;2023-05-15T08:31:49;6.18;;;5.50;;
28627;SDS011;15815;46.760;19.604;2023-05-15T08:34:14;6.60;;;4.28;;
28627;SDS011;15815;46.760;19.604;2023-05-15T08:36:40;5.68;;;5.18;;
28627;SDS011;15815;46.760;19.604;2023-05-15T08:39:06;6.88;;;4.97;;
28627;SDS011;15815;46.760;19.604;2023-05-15T08:41:31;7.07;;;6.38;;
28627;SDS011;15815;46.760;19.604;2023-05-15T08:44:00;4.95;;;4.45;;
28627;SDS011;15815;46.760;19.604;2023-05-15T08:46:29;4.50;;;4.10;;
28627;SDS011;15815;46.760;19.604;2023-05-15T08:48:56;5.85;;;4.55;;
28627;SDS011;15815;46.760;19.604;2023-05-15T08:51:24;6.20;;;4.00;;
28627;SDS011;15815;46.760;19.604;2023-05-15T08:53:49;3.85;;;3.55;;
28627;SDS011;15815;46.760;19.604;2023-05-15T08:56:15;4.38;;;3.92;;
28627;SDS011;15815;46.760;19.604;2023-05-15T08:58:43;3.35;;;3.13;;
28627;SDS011;15815;46.760;19.604;2023-05-15T09:01:12;3.90;;;3.50;;
28627;SDS011;15815;46.760;19.604;2023-05-15T09:03:39;4.85;;;3.22;;
28627;SDS011;15815;46.760;19.604;2023-05-15T09:06:05;4.32;;;2.20;;
28627;SDS011;15815;46.760;19.604;2023-05-15T09:08:32;3.17;;;2.88;;
28627;SDS011;15815;46.760;19.604;2023-05-15T09:10:59;3.10;;;2.75;;
28627;SDS011;15815;46.760;19.604;2023-05-15T09:13:27;2.58;;;2.38;;
28627;SDS011;15815;46.760;19.604;2023-05-15T09:15:52;3.50;;;2.10;;
28627;SDS011;15815;46.760;19.604;2023-05-15T09:18:18;3.05;;;1.98;;
28627;SDS011;15815;46.760;19.604;2023-05-15T09:20:44;1.50;;;1.40;;
28627;SDS011;15815;46.760;19.604;2023-05-15T09:23:25;3.15;;;2.33;;
28627;SDS011;15815;46.760;19.604;2023-05-15T09:25:52;1.92;;;1.83;;
28627;SDS011;15815;46.760;19.604;2023-05-15T09:28:28;2.10;;;1.88;;
28627;SDS011;15815;46.760;19.604;2023-05-15T09:30:55;3.88;;;1.70;;
28627;SDS011;15815;46.760;19.604;2023-05-15T09:33:32;3.90;;;1.70;;
28627;SDS011;15815;46.760;19.604;2023-05-15T09:36:03;5.22;;;1.70;;
28627;SDS011;15815;46.760;19.604;2023-05-15T09:38:31;1.52;;;1.42;;
28627;SDS011;15815;46.760;19.604;2023-05-15T09:41:01;2.83;;;1.80;;
28627;SDS011;15815;46.760;19.604;2023-05-15T09:43:35;2.55;;;1.80;;
28627;SDS011;15815;46.760;19.604;2023-05-15T09:46:02;1.73;;;1.50;;
28627;SDS011;15815;46.760;19.604;2023-05-15T09:48:28;1.60;;;1.50;;
28627;SDS011;15815;46.760;19.604;2023-05-15T09:50:54;2.17;;;1.58;;
28627;SDS011;15815;46.760;19.604;2023-05-15T09:53:20;1.50;;;1.40;;
28627;SDS011;15815;46.760;19.604;2023-05-15T09:55:46;2.08;;;1.55;;
28627;SDS011;15815;46.760;19.604;2023-05-15T09:58:13;1.80;;;1.30;;
28627;SDS011;15815;46.760;19.604;2023-05-15T10:00:43;3.92;;;1.67;;
28627;SDS011;15815;46.760;19.604;2023-05-15T10:03:10;7.60;;;1.98;;
28627;SDS011;15815;46.760;19.604;2023-05-15T10:05:36;3.72;;;1.35;;
28627;SDS011;15815;46.760;19.604;2023-05-15T10:08:04;1.42;;;1.33;;
28627;SDS011;15815;46.760;19.604;2023-05-15T10:10:29;1.50;;;1.40;;
28627;SDS011;15815;46.760;19.604;2023-05-15T10:12:57;1.48;;;1.20;;
28627;SDS011;15815;46.760;19.604;2023-05-15T10:15:23;1.40;;;1.30;;
28627;SDS011;15815;46.760;19.604;2023-05-15T10:17:50;1.48;;;1.38;;
28627;SDS011;15815;46.760;19.604;2023-05-15T10:20:17;1.40;;;1.30;;
28627;SDS011;15815;46.760;19.604;2023-05-15T10:22:44;1.27;;;1.27;;
28627;SDS011;15815;46.760;19.604;2023-05-15T10:25:15;2.10;;;1.40;;
28627;SDS011;15815;46.760;19.604;2023-05-15T10:27:42;2.03;;;1.35;;
28627;SDS011;15815;46.760;19.604;2023-05-15T10:30:14;2.33;;;1.70;;
28627;SDS011;15815;46.760;19.604;2023-05-15T10:32:40;2.10;;;1.90;;
28627;SDS011;15815;46.760;19.604;2023-05-15T10:35:08;2.85;;;1.80;;
28627;SDS011;15815;46.760;19.604;2023-05-15T10:37:38;3.33;;;1.50;;
28627;SDS011;15815;46.760;19.604;2023-05-15T10:40:05;1.30;;;1.20;;
28627;SDS011;15815;46.760;19.604;2023-05-15T10:42:33;7.90;;;1.20;;
28627;SDS011;15815;46.760;19.604;2023-05-15T10:45:00;3.97;;;1.17;;
28627;SDS011;15815;46.760;19.604;2023-05-15T10:47:26;2.97;;;1.20;;
28627;SDS011;15815;46.760;19.604;2023-05-15T10:49:53;1.80;;;1.50;;
28627;SDS011;15815;46.760;19.604;2023-05-15T10:52:19;2.15;;;1.60;;
28627;SDS011;15815;46.760;19.604;2023-05-15T10:54:45;4.28;;;1.35;;
28627;SDS011;15815;46.760;19.604;2023-05-15T10:57:10;1.13;;;1.05;;
28627;SDS011;15815;46.760;19.604;2023-05-15T10:59:37;1.95;;;1.30;;
28627;SDS011;15815;46.760;19.604;2023-05-15T11:02:19;4.63;;;2.50;;
28627;SDS011;15815;46.760;19.604;2023-05-15T11:04:46;5.10;;;2.13;;
28627;SDS011;15815;46.760;19.604;2023-05-15T11:07:14;2.13;;;1.58;;
28627;SDS011;15815;46.760;19.604;2023-05-15T11:09:40;7.95;;;1.50;;
28627;SDS011;15815;46.760;19.604;2023-05-15T11:12:07;1.48;;;1.38;;
28627;SDS011;15815;46.760;19.604;2023-05-15T11:17:06;1.42;;;1.30;;
28627;SDS011;15815;46.760;19.604;2023-05-15T11:19:34;3.03;;;1.30;;
28627;SDS011;15815;46.760;19.604;2023-05-15T11:27:22;3.03;;;1.40;;
28627;SDS011;15815;46.760;19.604;2023-05-15T11:32:44;6.28;;;1.42;;
28627;SDS011;15815;46.760;19.604;2023-05-15T11:35:24;1.42;;;1.33;;
28627;SDS011;15815;46.760;19.604;2023-05-15T11:37:53;1.70;;;1.40;;
28627;SDS011;15815;46.760;19.604;2023-05-15T11:40:24;1.35;;;1.25;;
28627;SDS011;15815;46.760;19.604;2023-05-15T11:45:56;4.75;;;1.20;;
28627;SDS011;15815;46.760;19.604;2023-05-15T11:48:29;4.15;;;1.20;;
28627;SDS011;15815;46.760;19.604;2023-05-15T11:50:56;1.30;;;1.10;;
28627;SDS011;15815;46.760;19.604;2023-05-15T11:53:22;4.05;;;1.52;;
28627;SDS011;15815;46.760;19.604;2023-05-15T11:55:50;1.40;;;1.30;;
28627;SDS011;15815;46.760;19.604;2023-05-15T11:58:21;3.03;;;2.30;;
28627;SDS011;15815;46.760;19.604;2023-05-15T12:00:48;2.03;;;1.20;;
28627;SDS011;15815;46.760;19.604;2023-05-15T12:03:24;2.47;;;1.30;;
28627;SDS011;15815;46.760;19.604;2023-05-15T12:05:52;9.43;;;1.38;;
28627;SDS011;15815;46.760;19.604;2023-05-15T12:08:18;4.35;;;1.40;;
28627;SDS011;15815;46.760;19.604;2023-05-15T12:10:45;4.13;;;1.35;;
28627;SDS011;15815;46.760;19.604;2023-05-15T12:13:14;1.88;;;1.20;;
28627;SDS011;15815;46.760;19.604;2023-05-15T12:15:42;4.65;;;1.23;;
28627;SDS011;15815;46.760;19.604;2023-05-15T12:18:10;9.43;;;2.08;;
28627;SDS011;15815;46.760;19.604;2023-05-15T12:20:37;3.03;;;1.48;;
28627;SDS011;15815;46.760;19.604;2023-05-15T12:23:05;10.38;;;1.65;;
28627;SDS011;15815;46.760;19.604;2023-05-15T12:25:32;1.30;;;1.20;;
28627;SDS011;15815;46.760;19.604;2023-05-15T12:28:01;10.35;;;1.35;;
28627;SDS011;15815;46.760;19.604;2023-05-15T12:30:31;1.27;;;1.17;;
28627;SDS011;15815;46.760;19.604;2023-05-15T12:33:01;1.50;;;1.40;;
28627;SDS011;15815;46.760;19.604;2023-05-15T12:35:29;1.10;;;0.97;;
28627;SDS011;15815;46.760;19.604;2023-05-15T12:37:56;2.03;;;1.20;;
28627;SDS011;15815;46.760;19.604;2023-05-15T12:40:22;6.22;;;1.33;;
28627;SDS011;15815;46.760;19.604;2023-05-15T12:42:50;1.70;;;1.35;;
28627;SDS011;15815;46.760;19.604;2023-05-15T12:45:18;1.38;;;1.27;;
28627;SDS011;15815;46.760;19.604;2023-05-15T12:47:46;1.30;;;1.20;;
28627;SDS011;15815;46.760;19.604;2023-05-15T12:50:16;1.77;;;1.67;;
28627;SDS011;15815;46.760;19.604;2023-05-15T12:55:14;1.55;;;1.45;;
28627;SDS011;15815;46.760;19.604;2023-05-15T12:57:56;2.38;;;1.60;;
28627;SDS011;15815;46.760;19.604;2023-05-15T13:00:24;4.00;;;1.42;;
28627;SDS011;15815;46.760;19.604;2023-05-15T13:02:53;3.97;;;1.92;;
28627;SDS011;15815;46.760;19.604;2023-05-15T13:05:27;1.20;;;1.15;;
28627;SDS011;15815;46.760;19.604;2023-05-15T13:07:56;1.60;;;1.48;;
28627;SDS011;15815;46.760;19.604;2023-05-15T13:10:23;1.23;;;1.10;;
28627;SDS011;15815;46.760;19.604;2023-05-15T13:12:50;1.90;;;1.33;;
28627;SDS011;15815;46.760;19.604;2023-05-15T13:15:32;2.67;;;1.30;;
28627;SDS011;15815;46.760;19.604;2023-05-15T13:20:46;1.27;;;1.15;;
28627;SDS011;15815;46.760;19.604;2023-05-15T13:23:16;3.70;;;1.30;;
28627;SDS011;15815;46.760;19.604;2023-05-15T13:25:43;1.45;;;1.35;;
28627;SDS011;15815;46.760;19.604;2023-05-15T13:28:10;1.77;;;1.45;;
28627;SDS011;15815;46.760;19.604;2023-05-15T13:30:37;1.20;;;1.10;;
28627;SDS011;15815;46.760;19.604;2023-05-15T13:33:03;1.30;;;1.20;;
28627;SDS011;15815;46.760;19.604;2023-05-15T13:35:29;3.40;;;1.52;;
28627;SDS011;15815;46.760;19.604;2023-05-15T13:37:55;3.13;;;1.77;;
28627;SDS011;15815;46.760;19.604;2023-05-15T13:40:21;4.28;;;1.52;;
28627;SDS011;15815;46.760;19.604;2023-05-15T13:42:46;3.15;;;1.52;;
28627;SDS011;15815;46.760;19.604;2023-05-15T13:45:13;3.30;;;1.65;;
28627;SDS011;15815;46.760;19.604;2023-05-15T13:47:39;2.40;;;1.30;;
28627;SDS011;15815;46.760;19.604;2023-05-15T13:50:05;1.55;;;1.45;;
28627;SDS011;15815;46.760;19.604;2023-05-15T13:52:36;5.07;;;1.45;;
28627;SDS011;15815;46.760;19.604;2023-05-15T13:55:02;1.40;;;1.30;;
28627;SDS011;15815;46.760;19.604;2023-05-15T13:57:28;2.67;;;1.30;;
28627;SDS011;15815;46.760;19.604;2023-05-15T13:59:54;0.88;;;0.88;;
28627;SDS011;15815;46.760;19.604;2023-05-15T14:02:20;1.60;;;1.40;;
28627;SDS011;15815;46.760;19.604;2023-05-15T14:04:46;2.63;;;1.80;;
28627;SDS011;15815;46.760;19.604;2023-05-15T14:07:11;1.55;;;1.45;;
28627;SDS011;15815;46.760;19.604;2023-05-15T14:09:37;4.40;;;1.55;;
28627;SDS011;15815;46.760;19.604;2023-05-15T14:12:03;2.80;;;1.63;;
28627;SDS011;15815;46.760;19.604;2023-05-15T14:14:28;3.83;;;1.67;;
28627;SDS011;15815;46.760;19.604;2023-05-15T14:16:54;1.40;;;1.30;;
28627;SDS011;15815;46.760;19.604;2023-05-15T14:19:19;1.65;;;1.00;;
28627;SDS011;15815;46.760;19.604;2023-05-15T14:21:45;4.70;;;1.45;;
28627;SDS011;15815;46.760;19.604;2023-05-15T14:24:10;3.65;;;1.25;;
28627;SDS011;15815;46.760;19.604;2023-05-15T14:26:36;4.45;;;1.90;;
28627;SDS011;15815;46.760;19.604;2023-05-15T14:29:01;4.13;;;1.27;;
28627;SDS011;15815;46.760;19.604;2023-05-15T14:31:27;4.93;;;1.30;;
28627;SDS011;15815;46.760;19.604;2023-05-15T14:33:52;1.55;;;1.42;;
28627;SDS011;15815;46.760;19.604;2023-05-15T14:36:18;2.50;;;2.30;;
28627;SDS011;15815;46.760;19.604;2023-05-15T14:38:43;7.03;;;1.55;;
28627;SDS011;15815;46.760;19.604;2023-05-15T14:41:09;2.45;;;1.60;;
28627;SDS011;15815;46.760;19.604;2023-05-15T14:43:38;3.13;;;1.40;;
28627;SDS011;15815;46.760;19.604;2023-05-15T14:46:03;4.25;;;1.00;;
28627;SDS011;15815;46.760;19.604;2023-05-15T14:48:29;11.93;;;1.85;;
28627;SDS011;15815;46.760;19.604;2023-05-15T14:50:56;5.22;;;1.48;;
28627;SDS011;15815;46.760;19.604;2023-05-15T14:53:22;4.28;;;1.83;;